Norwalk, Wisconsin
Current Conditions -  °F | °C
As of 9:35 PM on Saturday 24 Jan 2015 (Local Time) from KCMY Reporting Station
Overcast Overcast  
Wind Chill: 32°   Ceiling: 11000
Heat Index: 32°   Visibility: 10mi
Dew Point: 31°   Wind: 3mph
Humidity: 94%   Direction: 90°E
Pressure: 29.65"   Gusts: NA
Location:  43.83°N, 90.62°W
Report Text: KCMY 250335Z AUTO 09003KT 10SM SCT029 SCT075 OVC110 00/M01 A2965 RMK AO2 T00001008
Loading
Personal Weather Stations






























Interactive Weather Map New forecast layout! Learn more

10-Day Weather Forecast

Advertisements
Track Severe Weather on mobile